createdAt,value
2017-06-15T00:00:28.626Z,98.88
2017-06-15T00:01:28.632Z,99.02
2017-06-15T00:02:28.717Z,98.96
2017-06-15T00:03:28.630Z,98.88
2017-06-15T00:04:28.726Z,98.75
2017-06-15T00:05:28.691Z,98.80
2017-06-15T00:06:28.691Z,98.77
2017-06-15T00:07:28.690Z,98.66
2017-06-15T00:08:28.690Z,98.91
2017-06-15T00:09:28.688Z,98.94
2017-06-15T00:10:28.688Z,98.85
2017-06-15T00:11:28.690Z,99.21
2017-06-15T00:12:28.690Z,99.32
2017-06-15T00:13:28.690Z,99.40
2017-06-15T00:14:28.694Z,99.48
2017-06-15T00:15:28.708Z,99.81
2017-06-15T00:16:28.708Z,99.83
2017-06-15T00:17:28.710Z,99.89
2017-06-15T00:18:28.707Z,99.92
2017-06-15T00:19:28.722Z,99.99
2017-06-15T00:20:28.720Z,99.99
2017-06-15T00:21:28.714Z,99.99
2017-06-15T00:22:28.710Z,99.99
2017-06-15T00:23:28.712Z,99.99
2017-06-15T00:24:28.713Z,99.99
2017-06-15T00:25:28.710Z,99.99
2017-06-15T00:26:28.727Z,99.99
2017-06-15T00:27:28.720Z,99.99
2017-06-15T00:28:28.734Z,99.99
2017-06-15T00:29:28.648Z,99.99
2017-06-15T00:30:28.645Z,99.99
2017-06-15T00:31:28.730Z,99.99
2017-06-15T00:32:28.730Z,99.99
2017-06-15T00:33:28.729Z,99.89
2017-06-15T00:34:28.724Z,99.99
2017-06-15T00:35:28.657Z,99.99
2017-06-15T00:36:28.653Z,99.99
2017-06-15T00:37:28.838Z,99.99
2017-06-15T00:38:28.651Z,99.99
2017-06-15T00:39:28.711Z,99.99
2017-06-15T00:40:28.746Z,99.99
2017-06-15T00:41:28.740Z,99.99
2017-06-15T00:42:28.655Z,99.99
2017-06-15T00:43:28.700Z,99.99
2017-06-15T00:44:28.735Z,99.99
2017-06-15T00:45:28.723Z,99.99
2017-06-15T00:46:28.712Z,99.99
2017-06-15T00:47:28.711Z,99.99
2017-06-15T00:48:28.712Z,99.99
2017-06-15T00:49:28.708Z,99.99
2017-06-15T00:50:28.711Z,99.99
2017-06-15T00:51:28.711Z,99.99
2017-06-15T00:52:28.716Z,99.99
2017-06-15T00:53:28.712Z,99.99
2017-06-15T00:54:28.717Z,99.99
2017-06-15T00:55:28.713Z,99.99
2017-06-15T00:56:28.730Z,99.99
2017-06-15T00:57:28.757Z,99.99
2017-06-15T00:58:28.735Z,99.99
2017-06-15T00:59:28.731Z,99.99
2017-06-15T01:00:28.660Z,99.99
2017-06-15T01:01:28.751Z,99.99
2017-06-15T01:02:28.731Z,99.99
2017-06-15T01:03:28.760Z,99.99
2017-06-15T01:04:28.664Z,99.99
2017-06-15T01:05:28.749Z,99.99
2017-06-15T01:06:28.671Z,99.99
2017-06-15T01:07:28.664Z,99.99
2017-06-15T01:08:28.755Z,99.99
2017-06-15T01:09:28.761Z,99.99
2017-06-15T01:10:28.674Z,99.99
2017-06-15T01:11:28.715Z,99.99
2017-06-15T01:12:28.743Z,99.99
2017-06-15T01:13:28.667Z,99.99
2017-06-15T01:14:28.739Z,99.99
2017-06-15T01:15:28.744Z,99.99
2017-06-15T01:16:28.736Z,99.99
2017-06-15T01:17:28.740Z,99.99
2017-06-15T01:18:28.738Z,99.99
2017-06-15T01:19:28.739Z,99.99
2017-06-15T01:20:28.741Z,99.99
2017-06-15T01:21:28.745Z,99.99
2017-06-15T01:22:28.743Z,99.99
2017-06-15T01:23:28.743Z,99.99
2017-06-15T01:24:28.746Z,99.99
2017-06-15T01:25:28.746Z,99.99
2017-06-15T01:26:28.762Z,99.99
2017-06-15T01:27:28.726Z,99.99
2017-06-15T01:28:28.747Z,99.99
2017-06-15T01:29:28.784Z,99.99
2017-06-15T01:30:28.745Z,99.99
2017-06-15T01:31:28.770Z,99.99
2017-06-15T01:32:28.781Z,99.99
2017-06-15T01:33:28.774Z,99.99
2017-06-15T01:34:28.682Z,99.99
2017-06-15T01:35:28.767Z,99.99
2017-06-15T01:36:28.681Z,99.99
2017-06-15T01:37:28.767Z,99.99
2017-06-15T01:38:28.708Z,99.99
2017-06-15T01:39:28.765Z,99.99
2017-06-15T01:40:28.740Z,99.99
2017-06-15T01:41:28.772Z,99.99
2017-06-15T01:42:28.780Z,99.99
2017-06-15T01:43:28.769Z,99.99
2017-06-15T01:44:28.774Z,99.99
2017-06-15T01:45:28.762Z,99.99
2017-06-15T01:46:28.743Z,99.99
2017-06-15T01:47:28.827Z,99.99
2017-06-15T01:48:28.765Z,99.99
2017-06-15T01:49:28.772Z,99.99
2017-06-15T01:50:28.709Z,99.99
2017-06-15T01:51:28.753Z,99.99
2017-06-15T01:52:28.692Z,99.99
2017-06-15T01:53:28.787Z,99.99
2017-06-15T01:54:28.772Z,99.99
2017-06-15T01:55:28.750Z,99.99
2017-06-15T01:56:28.718Z,99.99
2017-06-15T01:57:28.687Z,99.99
2017-06-15T01:58:28.784Z,99.99
2017-06-15T01:59:28.691Z,99.99
2017-06-15T02:00:28.720Z,99.99
2017-06-15T02:01:28.788Z,99.99
2017-06-15T02:02:28.719Z,99.99
2017-06-15T02:03:28.719Z,99.99
2017-06-15T02:04:28.719Z,99.99
2017-06-15T02:05:28.696Z,99.99
2017-06-15T02:06:28.701Z,99.99
2017-06-15T02:07:28.768Z,99.99
2017-06-15T02:08:28.793Z,99.99
2017-06-15T02:09:28.772Z,99.99
2017-06-15T02:10:28.771Z,99.99
2017-06-15T02:11:28.769Z,99.99
2017-06-15T02:12:28.772Z,99.99
2017-06-15T02:13:28.849Z,99.99
2017-06-15T02:14:28.770Z,99.99
2017-06-15T02:15:28.770Z,99.99
2017-06-15T02:16:28.797Z,99.99
2017-06-15T02:17:28.725Z,99.99
2017-06-15T02:18:28.706Z,99.99
2017-06-15T02:19:28.785Z,99.99
2017-06-15T02:20:28.794Z,99.99
2017-06-15T02:21:28.787Z,99.99
2017-06-15T02:22:28.797Z,99.99
2017-06-15T02:23:28.800Z,99.99
2017-06-15T02:24:29.000Z,99.99
2017-06-15T02:25:28.784Z,99.99
2017-06-15T02:26:28.734Z,99.99
2017-06-15T02:27:28.694Z,99.99
2017-06-15T02:28:28.681Z,99.99
2017-06-15T02:29:28.679Z,99.99
2017-06-15T02:30:28.771Z,99.99
2017-06-15T02:31:28.663Z,99.99
2017-06-15T02:32:28.792Z,99.99
2017-06-15T02:33:28.773Z,99.99
2017-06-15T02:34:28.680Z,99.99
2017-06-15T02:35:28.774Z,99.99
2017-06-15T02:36:28.805Z,99.99
2017-06-15T02:37:28.714Z,99.99
2017-06-15T02:38:28.722Z,99.99
2017-06-15T02:39:28.810Z,99.99
2017-06-15T02:40:28.771Z,99.99
2017-06-15T02:41:28.717Z,99.99
2017-06-15T02:42:28.724Z,99.99
2017-06-15T02:43:28.797Z,99.99
2017-06-15T02:44:28.802Z,99.99
2017-06-15T02:45:28.794Z,99.99
2017-06-15T02:46:28.799Z,99.99
2017-06-15T02:47:28.813Z,99.99
2017-06-15T02:48:28.803Z,99.99
2017-06-15T02:49:28.779Z,99.99
2017-06-15T02:50:28.808Z,99.99
2017-06-15T02:51:28.773Z,99.99
2017-06-15T02:52:28.810Z,99.99
2017-06-15T02:53:28.816Z,99.99
2017-06-15T02:54:28.797Z,99.99
2017-06-15T02:55:28.833Z,99.99
2017-06-15T02:56:28.773Z,99.99
2017-06-15T02:57:28.727Z,99.99
2017-06-15T02:58:28.812Z,99.99
2017-06-15T02:59:28.807Z,99.99
2017-06-15T03:00:28.782Z,99.99
2017-06-15T03:01:28.804Z,99.99
2017-06-15T03:02:28.727Z,99.99
2017-06-15T03:03:28.784Z,99.99
2017-06-15T03:04:28.814Z,99.99
2017-06-15T03:05:28.735Z,99.99
2017-06-15T03:06:28.815Z,99.99
2017-06-15T03:07:28.804Z,99.99
2017-06-15T03:08:28.804Z,99.99
2017-06-15T03:09:28.802Z,99.99
2017-06-15T03:10:28.804Z,99.99
2017-06-15T03:11:28.806Z,99.99
2017-06-15T03:12:28.806Z,99.99
2017-06-15T03:13:28.804Z,99.99
2017-06-15T03:14:28.805Z,99.99
2017-06-15T03:15:28.805Z,99.99
2017-06-15T03:16:28.791Z,99.99
2017-06-15T03:17:28.816Z,99.99
2017-06-15T03:18:28.794Z,99.99
2017-06-15T03:19:28.792Z,99.99
2017-06-15T03:20:28.894Z,99.99
2017-06-15T03:21:28.793Z,99.99
2017-06-15T03:22:28.792Z,99.99
2017-06-15T03:23:28.794Z,99.99
2017-06-15T03:24:28.797Z,99.99
2017-06-15T03:25:28.793Z,99.99
2017-06-15T03:26:28.825Z,99.99
2017-06-15T03:27:28.824Z,99.99
2017-06-15T03:28:28.820Z,99.99
2017-06-15T03:29:28.830Z,99.99
2017-06-15T03:30:28.746Z,99.99
2017-06-15T03:31:28.789Z,99.99
2017-06-15T03:32:28.932Z,99.99
2017-06-15T03:33:28.812Z,99.99
2017-06-15T03:34:28.813Z,99.99
2017-06-15T03:35:28.830Z,99.99
2017-06-15T03:36:28.829Z,99.99
2017-06-15T03:37:28.809Z,99.99
2017-06-15T03:38:28.836Z,99.99
2017-06-15T03:39:28.826Z,99.99
2017-06-15T03:40:28.813Z,99.99
2017-06-15T03:41:28.750Z,99.99
2017-06-15T03:42:28.834Z,99.99
2017-06-15T03:43:28.744Z,99.99
2017-06-15T03:44:28.834Z,99.99
2017-06-15T03:45:28.745Z,99.99
2017-06-15T03:46:28.805Z,99.99
2017-06-15T03:47:28.803Z,99.99
2017-06-15T03:48:28.803Z,99.99
2017-06-15T03:49:28.811Z,99.99
2017-06-15T03:50:28.805Z,99.99
2017-06-15T03:51:28.805Z,99.99
2017-06-15T03:52:28.808Z,99.99
2017-06-15T03:53:28.810Z,99.99
2017-06-15T03:54:28.908Z,99.99
2017-06-15T03:55:28.808Z,99.99
2017-06-15T03:56:28.809Z,99.99
2017-06-15T03:57:28.810Z,99.99
2017-06-15T03:58:28.811Z,99.99
2017-06-15T03:59:28.811Z,99.99
2017-06-15T04:00:28.812Z,99.99
2017-06-15T04:01:28.826Z,99.99
2017-06-15T04:02:28.814Z,99.99
2017-06-15T04:03:28.841Z,99.99
2017-06-15T04:04:28.851Z,99.99
2017-06-15T04:05:28.817Z,99.99
2017-06-15T04:06:28.789Z,99.99
2017-06-15T04:07:28.852Z,99.99
2017-06-15T04:08:28.811Z,99.99
2017-06-15T04:09:28.848Z,99.99
2017-06-15T04:10:28.768Z,99.99
2017-06-15T04:11:28.772Z,99.99
2017-06-15T04:12:28.830Z,99.99
2017-06-15T04:13:28.852Z,99.99
2017-06-15T04:14:28.771Z,99.99
2017-06-15T04:15:28.767Z,99.99
2017-06-15T04:16:28.838Z,99.99
2017-06-15T04:17:28.834Z,99.99
2017-06-15T04:18:28.832Z,99.99
2017-06-15T04:19:28.836Z,99.99
2017-06-15T04:20:28.836Z,99.99
2017-06-15T04:21:28.840Z,99.99
2017-06-15T04:22:28.838Z,99.99
2017-06-15T04:23:28.838Z,99.99
2017-06-15T04:24:28.838Z,99.99
2017-06-15T04:25:28.842Z,99.99
2017-06-15T04:26:28.841Z,99.99
2017-06-15T04:27:28.841Z,99.99
2017-06-15T04:28:28.845Z,99.99
2017-06-15T04:29:28.842Z,99.99
2017-06-15T04:30:28.842Z,99.99
2017-06-15T04:31:28.841Z,99.99
2017-06-15T04:32:28.842Z,99.99
2017-06-15T04:33:28.840Z,99.99
2017-06-15T04:34:28.766Z,99.99
2017-06-15T04:35:28.840Z,99.99
2017-06-15T04:36:28.843Z,99.99
2017-06-15T04:37:28.833Z,99.99
2017-06-15T04:38:28.837Z,99.99
2017-06-15T04:39:28.834Z,99.99
2017-06-15T04:40:28.837Z,99.99
2017-06-15T04:41:28.835Z,99.99
2017-06-15T04:42:28.839Z,99.99
2017-06-15T04:43:28.837Z,99.99
2017-06-15T04:44:28.836Z,99.99
2017-06-15T04:45:28.838Z,99.99
2017-06-15T04:46:28.941Z,99.99
2017-06-15T04:47:28.849Z,99.99
2017-06-15T04:48:28.855Z,99.99
2017-06-15T04:49:28.852Z,99.99
2017-06-15T04:50:28.958Z,99.99
2017-06-15T04:51:28.961Z,99.99
2017-06-15T04:52:28.855Z,99.99
2017-06-15T04:53:28.861Z,99.99
2017-06-15T04:54:28.799Z,99.99
2017-06-15T04:55:28.858Z,99.99
2017-06-15T04:56:28.858Z,99.99
2017-06-15T04:57:28.856Z,99.99
2017-06-15T04:58:28.875Z,99.99
2017-06-15T04:59:28.869Z,99.62
2017-06-15T05:00:28.788Z,99.02
2017-06-15T05:01:28.977Z,98.37
2017-06-15T05:02:28.879Z,98.21
2017-06-15T05:03:28.795Z,98.23
2017-06-15T05:04:28.873Z,97.45
2017-06-15T05:05:28.888Z,97.12
2017-06-15T05:06:28.879Z,97.10
2017-06-15T05:07:28.775Z,97.15
2017-06-15T05:08:28.825Z,96.45
2017-06-15T05:09:28.788Z,96.47
2017-06-15T05:10:28.791Z,94.93
2017-06-15T05:11:28.785Z,95.07
2017-06-15T05:12:28.787Z,94.56
2017-06-15T05:13:28.827Z,93.70
2017-06-15T05:14:28.795Z,93.54
2017-06-15T05:15:28.839Z,93.43
2017-06-15T05:16:28.778Z,93.08
2017-06-15T05:17:28.893Z,91.01
2017-06-15T05:18:28.827Z,90.23
2017-06-15T05:19:28.836Z,90.20
2017-06-15T05:20:28.792Z,90.23
2017-06-15T05:21:28.783Z,90.98
2017-06-15T05:22:28.875Z,88.39
2017-06-15T05:23:28.807Z,87.32
2017-06-15T05:24:28.791Z,87.69
2017-06-15T05:25:28.800Z,88.81
2017-06-15T05:26:28.832Z,88.01
2017-06-15T05:27:28.813Z,88.01
2017-06-15T05:28:28.892Z,87.80
2017-06-15T05:29:28.809Z,87.32
2017-06-15T05:30:28.869Z,86.89
2017-06-15T05:31:28.853Z,86.84
2017-06-15T05:32:28.853Z,86.94
2017-06-15T05:33:28.887Z,85.72
2017-06-15T05:34:28.904Z,86.01
2017-06-15T05:35:28.820Z,84.81
2017-06-15T05:36:28.896Z,84.66
2017-06-15T05:37:28.898Z,85.30
2017-06-15T05:38:28.899Z,83.67
2017-06-15T05:39:28.893Z,83.54
2017-06-15T05:40:28.878Z,82.80
2017-06-15T05:41:28.897Z,82.51
2017-06-15T05:42:28.808Z,82.48
2017-06-15T05:43:28.811Z,80.71
2017-06-15T05:44:28.861Z,81.32
2017-06-15T05:45:28.898Z,80.18
2017-06-15T05:46:28.817Z,79.81
2017-06-15T05:47:28.874Z,80.52
2017-06-15T05:48:28.873Z,80.71
2017-06-15T05:49:28.872Z,79.55
2017-06-15T05:50:28.875Z,78.86
2017-06-15T05:51:28.872Z,77.65
2017-06-15T05:52:28.878Z,78.12
2017-06-15T05:53:28.873Z,76.67
2017-06-15T05:54:28.880Z,76.23
2017-06-15T05:55:28.877Z,75.49
2017-06-15T05:56:28.876Z,73.16
2017-06-15T05:57:28.821Z,74.84
2017-06-15T05:58:28.907Z,72.85
2017-06-15T05:59:28.909Z,73.01
2017-06-15T06:00:28.913Z,75.26
2017-06-15T06:01:28.825Z,74.71
2017-06-15T06:02:28.912Z,72.38
2017-06-15T06:03:28.903Z,74.21
2017-06-15T06:04:28.914Z,72.48
2017-06-15T06:05:28.968Z,72.07
2017-06-15T06:06:28.839Z,68.63
2017-06-15T06:07:28.875Z,71.75
2017-06-15T06:08:28.875Z,67.93
2017-06-15T06:09:28.890Z,65.68
2017-06-15T06:10:28.917Z,66.95
2017-06-15T06:11:28.828Z,67.05
2017-06-15T06:12:28.894Z,65.53
2017-06-15T06:13:28.917Z,65.91
2017-06-15T06:14:28.916Z,66.04
2017-06-15T06:15:28.941Z,66.01
2017-06-15T06:16:28.914Z,67.18
2017-06-15T06:17:28.837Z,66.40
2017-06-15T06:18:28.914Z,64.38
2017-06-15T06:19:28.837Z,65.11
2017-06-15T06:20:28.931Z,65.39
2017-06-15T06:21:28.918Z,66.97
2017-06-15T06:22:28.921Z,64.34
2017-06-15T06:23:28.900Z,64.49
2017-06-15T06:24:28.842Z,64.90
2017-06-15T06:25:28.931Z,64.18
2017-06-15T06:26:28.928Z,64.52
2017-06-15T06:27:28.925Z,64.52
2017-06-15T06:28:28.840Z,64.54
2017-06-15T06:29:28.923Z,63.56
2017-06-15T06:30:28.931Z,63.85
2017-06-15T06:31:28.934Z,62.50
2017-06-15T06:32:28.853Z,63.18
2017-06-15T06:33:28.923Z,65.39
2017-06-15T06:34:28.937Z,63.43
2017-06-15T06:35:28.847Z,63.72
2017-06-15T06:36:28.842Z,64.31
2017-06-15T06:37:28.923Z,62.69
2017-06-15T06:38:28.927Z,62.14
2017-06-15T06:39:28.930Z,62.35
2017-06-15T06:40:28.926Z,61.78
2017-06-15T06:41:28.934Z,61.82
2017-06-15T06:42:28.929Z,61.35
2017-06-15T06:43:28.939Z,63.13
2017-06-15T06:44:28.896Z,62.50
2017-06-15T06:45:28.934Z,62.69
2017-06-15T06:46:28.934Z,60.33
2017-06-15T06:47:28.916Z,61.38
2017-06-15T06:48:29.015Z,59.94
2017-06-15T06:49:28.914Z,60.66
2017-06-15T06:50:28.893Z,59.86
2017-06-15T06:51:28.917Z,58.43
2017-06-15T06:52:28.918Z,58.25
2017-06-15T06:53:29.005Z,58.43
2017-06-15T06:54:28.917Z,58.81
2017-06-15T06:55:28.919Z,60.91
2017-06-15T06:56:28.919Z,57.28
2017-06-15T06:57:28.840Z,58.33
2017-06-15T06:58:28.947Z,55.83
2017-06-15T06:59:28.946Z,58.17
2017-06-15T07:00:28.833Z,58.38
2017-06-15T07:01:28.899Z,59.09
2017-06-15T07:02:28.897Z,58.07
2017-06-15T07:03:28.903Z,59.07
2017-06-15T07:04:28.830Z,60.20
2017-06-15T07:05:28.893Z,58.59
2017-06-15T07:06:28.838Z,59.45
2017-06-15T07:07:28.923Z,57.92
2017-06-15T07:08:28.925Z,56.93
2017-06-15T07:09:28.923Z,58.12
2017-06-15T07:10:28.926Z,56.08
2017-06-15T07:11:28.932Z,57.76
2017-06-15T07:12:29.010Z,55.96
2017-06-15T07:13:28.933Z,56.72
2017-06-15T07:14:28.932Z,56.13
2017-06-15T07:15:28.957Z,57.28
2017-06-15T07:16:28.928Z,55.98
2017-06-15T07:17:28.936Z,55.55
2017-06-15T07:18:28.933Z,56.16
2017-06-15T07:19:28.930Z,56.90
2017-06-15T07:20:28.932Z,56.24
2017-06-15T07:21:29.036Z,55.96
2017-06-15T07:22:28.937Z,54.58
2017-06-15T07:23:28.937Z,58.46
2017-06-15T07:24:28.934Z,55.75
2017-06-15T07:25:28.939Z,54.91
2017-06-15T07:26:28.938Z,55.45
2017-06-15T07:27:28.959Z,53.87
2017-06-15T07:28:28.934Z,56.18
2017-06-15T07:29:28.956Z,53.36
2017-06-15T07:30:28.949Z,53.82
2017-06-15T07:31:28.955Z,53.51
2017-06-15T07:32:28.958Z,53.51
2017-06-15T07:33:28.973Z,54.66
2017-06-15T07:34:28.880Z,53.42
2017-06-15T07:35:28.919Z,53.09
2017-06-15T07:36:28.960Z,52.40
2017-06-15T07:37:28.883Z,55.39
2017-06-15T07:38:28.880Z,52.32
2017-06-15T07:39:28.960Z,51.79
2017-06-15T07:40:28.958Z,54.96
2017-06-15T07:41:28.885Z,53.56
2017-06-15T07:42:28.956Z,55.78
2017-06-15T07:43:28.963Z,53.59
2017-06-15T07:44:28.976Z,54.53
2017-06-15T07:45:28.973Z,53.31
2017-06-15T07:46:28.968Z,51.66
2017-06-15T07:47:28.950Z,52.93
2017-06-15T07:48:28.950Z,52.40
2017-06-15T07:49:28.950Z,53.51
2017-06-15T07:50:28.950Z,53.67
2017-06-15T07:51:28.955Z,54.10
2017-06-15T07:52:28.951Z,51.19
2017-06-15T07:53:29.055Z,53.03
2017-06-15T07:54:28.951Z,51.84
2017-06-15T07:55:29.034Z,51.51
2017-06-15T07:56:28.952Z,52.55
2017-06-15T07:57:28.955Z,54.94
2017-06-15T07:58:28.940Z,53.09
2017-06-15T07:59:28.942Z,53.26
2017-06-15T08:00:28.943Z,54.28
2017-06-15T08:01:28.946Z,53.34
2017-06-15T08:02:28.944Z,53.01
2017-06-15T08:03:28.945Z,55.78
2017-06-15T08:04:28.946Z,53.26
2017-06-15T08:05:28.951Z,51.74
2017-06-15T08:06:29.046Z,50.58
2017-06-15T08:07:28.976Z,55.39
2017-06-15T08:08:29.101Z,51.21
2017-06-15T08:09:28.981Z,52.81
2017-06-15T08:10:28.901Z,52.27
2017-06-15T08:11:28.955Z,52.57
2017-06-15T08:12:28.897Z,53.87
2017-06-15T08:13:28.896Z,54.33
2017-06-15T08:14:28.943Z,55.32
2017-06-15T08:15:28.983Z,54.00
2017-06-15T08:16:28.979Z,52.83
2017-06-15T08:17:28.981Z,53.29
2017-06-15T08:18:28.985Z,54.41
2017-06-15T08:19:28.908Z,55.02
2017-06-15T08:20:28.985Z,54.76
2017-06-15T08:21:28.907Z,53.69
2017-06-15T08:22:28.950Z,54.48
2017-06-15T08:23:28.948Z,52.73
2017-06-15T08:24:28.907Z,52.90
2017-06-15T08:25:28.904Z,52.04
2017-06-15T08:26:28.985Z,53.36
2017-06-15T08:27:28.983Z,52.83
2017-06-15T08:28:28.971Z,55.35
2017-06-15T08:29:28.970Z,53.09
2017-06-15T08:30:28.973Z,53.11
2017-06-15T08:31:28.967Z,53.06
2017-06-15T08:32:28.975Z,55.19
2017-06-15T08:33:28.973Z,55.35
2017-06-15T08:34:28.978Z,56.80
2017-06-15T08:35:28.975Z,55.19
2017-06-15T08:36:28.977Z,57.56
2017-06-15T08:37:28.986Z,54.33
2017-06-15T08:38:28.975Z,55.50
2017-06-15T08:39:28.915Z,51.46
2017-06-15T08:40:28.916Z,55.11
2017-06-15T08:41:28.912Z,51.71
2017-06-15T08:42:29.002Z,53.09
2017-06-15T08:43:29.003Z,52.78
2017-06-15T08:44:28.989Z,52.93
2017-06-15T08:45:28.994Z,51.89
2017-06-15T08:46:28.918Z,51.24
2017-06-15T08:47:29.003Z,56.06
2017-06-15T08:48:28.906Z,53.01
2017-06-15T08:49:28.893Z,51.49
2017-06-15T08:50:28.946Z,50.02
2017-06-15T08:51:28.990Z,50.30
2017-06-15T08:52:28.998Z,52.68
2017-06-15T08:53:28.902Z,49.22
2017-06-15T08:54:28.885Z,50.53
2017-06-15T08:55:28.910Z,51.39
2017-06-15T08:56:28.987Z,51.79
2017-06-15T08:57:28.917Z,50.10
2017-06-15T08:58:28.987Z,47.31
2017-06-15T08:59:28.990Z,46.40
2017-06-15T09:00:29.004Z,47.65
2017-06-15T09:01:28.991Z,47.88
2017-06-15T09:02:28.995Z,50.66
2017-06-15T09:03:28.987Z,49.14
2017-06-15T09:04:28.972Z,48.69
2017-06-15T09:05:28.981Z,48.89
2017-06-15T09:06:29.006Z,50.10
2017-06-15T09:07:28.991Z,50.98
2017-06-15T09:08:28.997Z,47.86
2017-06-15T09:09:28.994Z,49.27
2017-06-15T09:10:28.991Z,46.05
2017-06-15T09:11:28.998Z,46.55
2017-06-15T09:12:28.993Z,48.34
2017-06-15T09:13:28.995Z,46.75
2017-06-15T09:14:28.997Z,47.73
2017-06-15T09:15:28.999Z,49.02
2017-06-15T09:16:29.000Z,49.52
2017-06-15T09:17:28.994Z,48.74
2017-06-15T09:18:28.999Z,47.88
2017-06-15T09:19:28.994Z,48.19
2017-06-15T09:20:28.995Z,48.89
2017-06-15T09:21:29.000Z,47.93
2017-06-15T09:22:28.995Z,48.99
2017-06-15T09:23:28.920Z,47.63
2017-06-15T09:24:28.920Z,46.27
2017-06-15T09:25:28.905Z,45.52
2017-06-15T09:26:28.922Z,47.31
2017-06-15T09:27:28.921Z,51.69
2017-06-15T09:28:28.919Z,50.48
2017-06-15T09:29:28.904Z,48.48
2017-06-15T09:30:28.923Z,45.77
2017-06-15T09:31:28.850Z,46.81
2017-06-15T09:32:28.922Z,45.95
2017-06-15T09:33:28.980Z,46.38
2017-06-15T09:34:29.007Z,46.52
2017-06-15T09:35:28.920Z,44.55
2017-06-15T09:36:29.008Z,45.43
2017-06-15T09:37:29.013Z,46.38
2017-06-15T09:38:29.012Z,46.00
2017-06-15T09:39:29.037Z,44.55
2017-06-15T09:40:29.011Z,45.52
2017-06-15T09:41:29.037Z,44.82
2017-06-15T09:42:29.013Z,45.32
2017-06-15T09:43:29.013Z,44.95
2017-06-15T09:44:29.012Z,45.75
2017-06-15T09:45:29.015Z,45.80
2017-06-15T09:46:29.012Z,47.48
2017-06-15T09:47:29.014Z,46.32
2017-06-15T09:48:29.014Z,46.45
2017-06-15T09:49:29.012Z,44.97
2017-06-15T09:50:29.016Z,45.37
2017-06-15T09:51:29.014Z,44.64
2017-06-15T09:52:29.012Z,44.57
2017-06-15T09:53:29.012Z,44.93
2017-06-15T09:54:29.019Z,44.22
2017-06-15T09:55:29.018Z,45.05
2017-06-15T09:56:29.017Z,45.60
2017-06-15T09:57:29.025Z,46.15
2017-06-15T09:58:29.020Z,46.30
2017-06-15T09:59:29.021Z,44.90
2017-06-15T10:00:29.021Z,45.25
2017-06-15T10:01:29.021Z,45.77
2017-06-15T10:02:29.032Z,44.43
2017-06-15T10:03:29.021Z,41.65
2017-06-15T10:04:29.042Z,42.45
2017-06-15T10:05:29.043Z,41.73
2017-06-15T10:06:29.043Z,43.20
2017-06-15T10:07:29.051Z,41.70
2017-06-15T10:08:28.959Z,41.43
2017-06-15T10:09:29.097Z,42.70
2017-06-15T10:10:29.040Z,43.08
2017-06-15T10:11:29.054Z,42.70
2017-06-15T10:12:29.053Z,43.85
2017-06-15T10:13:29.057Z,41.50
2017-06-15T10:14:29.013Z,42.18
2017-06-15T10:15:28.959Z,42.70
2017-06-15T10:16:29.008Z,41.75
2017-06-15T10:17:29.008Z,43.55
2017-06-15T10:18:28.960Z,41.70
2017-06-15T10:19:29.052Z,42.33
2017-06-15T10:20:29.153Z,42.33
2017-06-15T10:21:29.056Z,42.18
2017-06-15T10:22:29.048Z,40.98
2017-06-15T10:23:29.035Z,42.50
2017-06-15T10:24:29.034Z,42.97
2017-06-15T10:25:28.997Z,41.58
2017-06-15T10:26:29.031Z,42.78
2017-06-15T10:27:29.055Z,41.73
2017-06-15T10:28:28.970Z,41.33
2017-06-15T10:29:29.057Z,40.93
2017-06-15T10:30:28.977Z,40.76
2017-06-15T10:31:28.973Z,40.91
2017-06-15T10:32:28.967Z,41.85
2017-06-15T10:33:29.016Z,42.50
2017-06-15T10:34:29.030Z,39.94
2017-06-15T10:35:29.053Z,41.21
2017-06-15T10:36:29.026Z,40.61
2017-06-15T10:37:29.028Z,41.85
2017-06-15T10:38:29.029Z,38.60
2017-06-15T10:39:29.035Z,38.77
2017-06-15T10:40:29.033Z,40.81
2017-06-15T10:41:29.031Z,39.74
2017-06-15T10:42:29.133Z,43.70
2017-06-15T10:43:29.033Z,38.90
2017-06-15T10:44:29.032Z,37.51
2017-06-15T10:45:29.036Z,41.01
2017-06-15T10:46:29.032Z,42.20
2017-06-15T10:47:29.037Z,38.13
2017-06-15T10:48:29.035Z,38.68
2017-06-15T10:49:29.036Z,36.77
2017-06-15T10:50:29.038Z,37.81
2017-06-15T10:51:29.034Z,38.21
2017-06-15T10:52:29.042Z,39.79
2017-06-15T10:53:29.038Z,37.34
2017-06-15T10:54:29.068Z,38.87
2017-06-15T10:55:28.989Z,39.27
2017-06-15T10:56:29.070Z,39.74
2017-06-15T10:57:29.065Z,37.49
2017-06-15T10:58:29.076Z,36.62
2017-06-15T10:59:29.082Z,34.92
2017-06-15T11:00:29.041Z,39.02
2017-06-15T11:01:28.982Z,36.13
2017-06-15T11:02:28.989Z,37.19
2017-06-15T11:03:29.054Z,35.78
2017-06-15T11:04:29.059Z,36.87
2017-06-15T11:05:29.060Z,35.51
2017-06-15T11:06:29.060Z,38.65
2017-06-15T11:07:29.061Z,38.94
2017-06-15T11:08:29.061Z,39.47
2017-06-15T11:09:29.061Z,37.29
2017-06-15T11:10:29.059Z,37.22
2017-06-15T11:11:29.053Z,38.55
2017-06-15T11:12:29.061Z,40.31
2017-06-15T11:13:29.061Z,39.62
2017-06-15T11:14:29.047Z,39.34
2017-06-15T11:15:29.046Z,40.29
2017-06-15T11:16:29.048Z,41.56
2017-06-15T11:17:29.046Z,40.76
2017-06-15T11:18:29.050Z,40.01
2017-06-15T11:19:29.047Z,42.80
2017-06-15T11:20:29.050Z,40.26
2017-06-15T11:21:29.050Z,42.15
2017-06-15T11:22:29.052Z,43.57
2017-06-15T11:23:29.050Z,41.50
2017-06-15T11:24:28.988Z,41.43
2017-06-15T11:25:29.027Z,43.92
2017-06-15T11:26:29.026Z,43.35
2017-06-15T11:27:29.026Z,42.33
2017-06-15T11:28:28.996Z,41.98
2017-06-15T11:29:28.979Z,42.60
2017-06-15T11:30:29.033Z,44.05
2017-06-15T11:31:28.996Z,43.25
2017-06-15T11:32:29.093Z,42.42
2017-06-15T11:33:29.049Z,42.48
2017-06-15T11:34:29.008Z,43.02
2017-06-15T11:35:29.014Z,42.87
2017-06-15T11:36:29.005Z,41.33
2017-06-15T11:37:29.049Z,41.90
2017-06-15T11:38:29.085Z,40.48
2017-06-15T11:39:29.093Z,39.49
2017-06-15T11:40:29.100Z,40.73
2017-06-15T11:41:29.099Z,42.18
2017-06-15T11:42:29.095Z,40.96
2017-06-15T11:43:29.067Z,41.88
2017-06-15T11:44:29.095Z,40.13
2017-06-15T11:45:29.053Z,40.81
2017-06-15T11:46:29.057Z,41.65
2017-06-15T11:47:29.098Z,39.66
2017-06-15T11:48:29.095Z,40.29
2017-06-15T11:49:29.015Z,43.80
2017-06-15T11:50:29.018Z,40.54
2017-06-15T11:51:29.015Z,38.92
2017-06-15T11:52:29.077Z,39.84
2017-06-15T11:53:29.098Z,38.60
2017-06-15T11:54:29.000Z,39.42
2017-06-15T11:55:29.043Z,39.59
2017-06-15T11:56:29.005Z,38.13
2017-06-15T11:57:29.045Z,37.56
2017-06-15T11:58:29.005Z,39.47
2017-06-15T11:59:29.001Z,41.98
2017-06-15T12:00:29.011Z,39.69
2017-06-15T12:01:29.047Z,37.27
2017-06-15T12:02:29.005Z,38.08
2017-06-15T12:03:29.047Z,38.43
2017-06-15T12:04:29.103Z,38.63
2017-06-15T12:05:29.092Z,39.64
2017-06-15T12:06:29.092Z,37.91
2017-06-15T12:07:29.089Z,38.82
2017-06-15T12:08:29.091Z,40.61
2017-06-15T12:09:29.093Z,37.96
2017-06-15T12:10:29.093Z,37.16
2017-06-15T12:11:29.094Z,38.87
2017-06-15T12:12:29.093Z,37.91
2017-06-15T12:13:29.096Z,39.47
2017-06-15T12:14:29.081Z,37.71
2017-06-15T12:15:29.082Z,37.86
2017-06-15T12:16:29.086Z,39.29
2017-06-15T12:17:29.084Z,37.66
2017-06-15T12:18:29.085Z,36.35
2017-06-15T12:19:29.085Z,38.25
2017-06-15T12:20:29.085Z,39.64
2017-06-15T12:21:29.085Z,37.56
2017-06-15T12:22:29.088Z,38.35
2017-06-15T12:23:29.087Z,37.81
2017-06-15T12:24:29.122Z,39.71
2017-06-15T12:25:29.094Z,39.19
2017-06-15T12:26:29.117Z,38.99
2017-06-15T12:27:29.081Z,38.92
2017-06-15T12:28:29.117Z,37.98
2017-06-15T12:29:29.079Z,38.50
2017-06-15T12:30:29.121Z,38.94
2017-06-15T12:31:29.120Z,39.47
2017-06-15T12:32:29.098Z,40.01
2017-06-15T12:33:29.123Z,38.40
2017-06-15T12:34:29.031Z,39.07
2017-06-15T12:35:29.122Z,40.51
2017-06-15T12:36:29.101Z,41.50
2017-06-15T12:37:29.036Z,40.85
2017-06-15T12:38:29.126Z,41.18
2017-06-15T12:39:29.124Z,42.00
2017-06-15T12:40:29.047Z,40.78
2017-06-15T12:41:29.128Z,41.35
2017-06-15T12:42:29.128Z,40.11
2017-06-15T12:43:29.092Z,41.01
2017-06-15T12:44:29.130Z,42.97
2017-06-15T12:45:29.103Z,43.25
2017-06-15T12:46:29.098Z,42.65
2017-06-15T12:47:29.100Z,39.79
2017-06-15T12:48:29.099Z,39.89
2017-06-15T12:49:29.102Z,42.25
2017-06-15T12:50:29.101Z,42.23
2017-06-15T12:51:29.103Z,43.85
2017-06-15T12:52:29.097Z,40.83